sensor_id;sensor_type;location;lat;lon;timestamp;temperature;humidity
4054;DHT22;2042;47.956;9.222;2023-04-24T00:02:24;8.50;17.30
4054;DHT22;2042;47.956;9.222;2023-04-24T00:04:51;8.50;16.80
4054;DHT22;2042;47.956;9.222;2023-04-24T00:07:16;8.50;16.50
4054;DHT22;2042;47.956;9.222;2023-04-24T00:09:45;8.40;16.30
4054;DHT22;2042;47.956;9.222;2023-04-24T00:12:11;8.40;16.00
4054;DHT22;2042;47.956;9.222;2023-04-24T00:14:36;8.40;15.60
4054;DHT22;2042;47.956;9.222;2023-04-24T00:17:02;8.40;15.60
4054;DHT22;2042;47.956;9.222;2023-04-24T00:19:28;8.40;15.20
4054;DHT22;2042;47.956;9.222;2023-04-24T00:21:54;8.30;14.80
4054;DHT22;2042;47.956;9.222;2023-04-24T00:24:20;8.30;14.60
4054;DHT22;2042;47.956;9.222;2023-04-24T00:26:46;8.30;14.40
4054;DHT22;2042;47.956;9.222;2023-04-24T00:29:12;8.30;14.30
4054;DHT22;2042;47.956;9.222;2023-04-24T00:31:38;8.30;14.20
4054;DHT22;2042;47.956;9.222;2023-04-24T00:34:04;8.20;14.10
4054;DHT22;2042;47.956;9.222;2023-04-24T00:36:30;8.20;13.90
4054;DHT22;2042;47.956;9.222;2023-04-24T00:38:56;8.10;13.60
4054;DHT22;2042;47.956;9.222;2023-04-24T00:41:24;8.10;14.30
4054;DHT22;2042;47.956;9.222;2023-04-24T00:43:50;8.00;14.20
4054;DHT22;2042;47.956;9.222;2023-04-24T00:46:16;8.10;15.30
4054;DHT22;2042;47.956;9.222;2023-04-24T00:48:42;8.10;15.60
4054;DHT22;2042;47.956;9.222;2023-04-24T00:51:08;8.20;15.80
4054;DHT22;2042;47.956;9.222;2023-04-24T00:53:34;8.20;15.40
4054;DHT22;2042;47.956;9.222;2023-04-24T00:56:00;8.20;15.10
4054;DHT22;2042;47.956;9.222;2023-04-24T00:58:26;8.20;14.70
4054;DHT22;2042;47.956;9.222;2023-04-24T01:00:53;8.20;14.10
4054;DHT22;2042;47.956;9.222;2023-04-24T01:03:26;8.20;13.70
4054;DHT22;2042;47.956;9.222;2023-04-24T01:05:54;8.20;13.20
4054;DHT22;2042;47.956;9.222;2023-04-24T01:08:22;8.20;12.80
4054;DHT22;2042;47.956;9.222;2023-04-24T01:10:52;8.20;12.70
4054;DHT22;2042;47.956;9.222;2023-04-24T01:13:19;8.20;12.80
4054;DHT22;2042;47.956;9.222;2023-04-24T01:15:45;8.20;12.50
4054;DHT22;2042;47.956;9.222;2023-04-24T01:18:11;8.20;12.40
4054;DHT22;2042;47.956;9.222;2023-04-24T01:20:41;8.20;12.30
4054;DHT22;2042;47.956;9.222;2023-04-24T01:23:08;8.20;12.30
4054;DHT22;2042;47.956;9.222;2023-04-24T01:25:34;8.20;12.30
4054;DHT22;2042;47.956;9.222;2023-04-24T01:28:00;8.20;12.70
4054;DHT22;2042;47.956;9.222;2023-04-24T01:30:27;8.20;12.90
4054;DHT22;2042;47.956;9.222;2023-04-24T01:32:53;8.20;13.30
4054;DHT22;2042;47.956;9.222;2023-04-24T01:35:19;8.20;13.60
4054;DHT22;2042;47.956;9.222;2023-04-24T01:37:45;8.20;14.00
4054;DHT22;2042;47.956;9.222;2023-04-24T01:40:11;8.20;14.30
4054;DHT22;2042;47.956;9.222;2023-04-24T01:42:37;8.20;14.80
4054;DHT22;2042;47.956;9.222;2023-04-24T01:45:04;8.20;15.10
4054;DHT22;2042;47.956;9.222;2023-04-24T01:47:31;8.20;15.30
4054;DHT22;2042;47.956;9.222;2023-04-24T01:49:57;8.20;15.00
4054;DHT22;2042;47.956;9.222;2023-04-24T01:52:23;8.20;14.90
4054;DHT22;2042;47.956;9.222;2023-04-24T01:54:50;8.10;15.00
4054;DHT22;2042;47.956;9.222;2023-04-24T01:57:16;8.10;15.50
4054;DHT22;2042;47.956;9.222;2023-04-24T01:59:42;8.10;15.90
4054;DHT22;2042;47.956;9.222;2023-04-24T02:02:08;8.00;16.00
4054;DHT22;2042;47.956;9.222;2023-04-24T02:04:33;8.00;16.10
4054;DHT22;2042;47.956;9.222;2023-04-24T02:06:59;8.00;16.30
4054;DHT22;2042;47.956;9.222;2023-04-24T02:09:25;8.00;16.30
4054;DHT22;2042;47.956;9.222;2023-04-24T02:11:50;8.00;16.20
4054;DHT22;2042;47.956;9.222;2023-04-24T02:14:16;8.00;16.50
4054;DHT22;2042;47.956;9.222;2023-04-24T02:16:42;8.00;17.00
4054;DHT22;2042;47.956;9.222;2023-04-24T02:19:09;8.00;17.50
4054;DHT22;2042;47.956;9.222;2023-04-24T02:21:34;8.10;18.30
4054;DHT22;2042;47.956;9.222;2023-04-24T02:24:00;8.10;18.60
4054;DHT22;2042;47.956;9.222;2023-04-24T02:26:26;8.20;18.80
4054;DHT22;2042;47.956;9.222;2023-04-24T02:28:51;8.20;18.80
4054;DHT22;2042;47.956;9.222;2023-04-24T02:31:17;8.30;18.80
4054;DHT22;2042;47.956;9.222;2023-04-24T02:33:43;8.30;18.30
4054;DHT22;2042;47.956;9.222;2023-04-24T02:36:08;8.40;17.20
4054;DHT22;2042;47.956;9.222;2023-04-24T02:38:34;8.40;16.50
4054;DHT22;2042;47.956;9.222;2023-04-24T02:41:00;8.30;16.30
4054;DHT22;2042;47.956;9.222;2023-04-24T02:43:26;8.30;16.20
4054;DHT22;2042;47.956;9.222;2023-04-24T02:45:51;8.30;16.00
4054;DHT22;2042;47.956;9.222;2023-04-24T02:48:17;8.30;15.60
4054;DHT22;2042;47.956;9.222;2023-04-24T02:50:43;8.30;14.90
4054;DHT22;2042;47.956;9.222;2023-04-24T02:53:08;8.20;14.40
4054;DHT22;2042;47.956;9.222;2023-04-24T02:55:34;8.20;14.00
4054;DHT22;2042;47.956;9.222;2023-04-24T02:58:00;8.10;13.70
4054;DHT22;2042;47.956;9.222;2023-04-24T03:00:25;8.10;13.40
4054;DHT22;2042;47.956;9.222;2023-04-24T03:02:51;8.00;13.20
4054;DHT22;2042;47.956;9.222;2023-04-24T03:05:16;7.90;13.10
4054;DHT22;2042;47.956;9.222;2023-04-24T03:07:42;7.90;13.10
4054;DHT22;2042;47.956;9.222;2023-04-24T03:10:08;7.80;13.30
4054;DHT22;2042;47.956;9.222;2023-04-24T03:12:34;7.80;13.30
4054;DHT22;2042;47.956;9.222;2023-04-24T03:14:59;7.80;13.40
4054;DHT22;2042;47.956;9.222;2023-04-24T03:17:25;7.70;13.40
4054;DHT22;2042;47.956;9.222;2023-04-24T03:19:51;7.60;13.70
4054;DHT22;2042;47.956;9.222;2023-04-24T03:22:16;7.60;13.80
4054;DHT22;2042;47.956;9.222;2023-04-24T03:24:42;7.60;13.50
4054;DHT22;2042;47.956;9.222;2023-04-24T03:27:08;7.50;13.80
4054;DHT22;2042;47.956;9.222;2023-04-24T03:29:33;7.50;13.90
4054;DHT22;2042;47.956;9.222;2023-04-24T03:31:59;7.40;13.70
4054;DHT22;2042;47.956;9.222;2023-04-24T03:34:24;7.40;14.00
4054;DHT22;2042;47.956;9.222;2023-04-24T03:36:50;7.40;14.30
4054;DHT22;2042;47.956;9.222;2023-04-24T03:39:16;7.30;14.50
4054;DHT22;2042;47.956;9.222;2023-04-24T03:41:42;7.30;14.90
4054;DHT22;2042;47.956;9.222;2023-04-24T03:44:08;7.30;14.90
4054;DHT22;2042;47.956;9.222;2023-04-24T03:46:33;7.30;15.00
4054;DHT22;2042;47.956;9.222;2023-04-24T03:48:59;7.30;15.50
4054;DHT22;2042;47.956;9.222;2023-04-24T03:51:25;7.40;15.70
4054;DHT22;2042;47.956;9.222;2023-04-24T03:53:50;7.40;16.20
4054;DHT22;2042;47.956;9.222;2023-04-24T03:56:16;7.40;15.60
4054;DHT22;2042;47.956;9.222;2023-04-24T03:58:42;7.50;15.30
4054;DHT22;2042;47.956;9.222;2023-04-24T04:01:07;7.50;14.40
4054;DHT22;2042;47.956;9.222;2023-04-24T04:03:33;7.50;13.90
4054;DHT22;2042;47.956;9.222;2023-04-24T04:05:59;7.60;13.60
4054;DHT22;2042;47.956;9.222;2023-04-24T04:08:25;7.60;12.90
4054;DHT22;2042;47.956;9.222;2023-04-24T04:10:51;7.60;12.40
4054;DHT22;2042;47.956;9.222;2023-04-24T04:13:17;7.60;12.10
4054;DHT22;2042;47.956;9.222;2023-04-24T04:15:43;7.60;11.50
4054;DHT22;2042;47.956;9.222;2023-04-24T04:18:08;7.60;11.00
4054;DHT22;2042;47.956;9.222;2023-04-24T04:20:34;7.60;10.70
4054;DHT22;2042;47.956;9.222;2023-04-24T04:23:00;7.60;11.20
4054;DHT22;2042;47.956;9.222;2023-04-24T04:25:25;7.60;11.30
4054;DHT22;2042;47.956;9.222;2023-04-24T04:27:51;7.60;11.20
4054;DHT22;2042;47.956;9.222;2023-04-24T04:30:17;7.60;11.00
4054;DHT22;2042;47.956;9.222;2023-04-24T04:32:43;7.70;10.50
4054;DHT22;2042;47.956;9.222;2023-04-24T04:35:10;7.70;10.00
4054;DHT22;2042;47.956;9.222;2023-04-24T04:37:35;7.60;9.40
4054;DHT22;2042;47.956;9.222;2023-04-24T04:40:02;7.60;9.60
4054;DHT22;2042;47.956;9.222;2023-04-24T04:42:37;7.60;9.70
4054;DHT22;2042;47.956;9.222;2023-04-24T04:45:09;7.60;9.60
4054;DHT22;2042;47.956;9.222;2023-04-24T04:47:35;7.60;8.90
4054;DHT22;2042;47.956;9.222;2023-04-24T04:50:01;7.60;8.50
4054;DHT22;2042;47.956;9.222;2023-04-24T04:52:26;7.60;8.40
4054;DHT22;2042;47.956;9.222;2023-04-24T04:54:52;7.60;8.50
4054;DHT22;2042;47.956;9.222;2023-04-24T04:57:18;7.60;8.70
4054;DHT22;2042;47.956;9.222;2023-04-24T04:59:44;7.60;8.70
4054;DHT22;2042;47.956;9.222;2023-04-24T05:02:10;7.70;9.30
4054;DHT22;2042;47.956;9.222;2023-04-24T05:04:35;7.70;9.60
4054;DHT22;2042;47.956;9.222;2023-04-24T05:07:01;7.80;9.40
4054;DHT22;2042;47.956;9.222;2023-04-24T05:09:27;7.80;8.60
4054;DHT22;2042;47.956;9.222;2023-04-24T05:11:55;7.80;8.50
4054;DHT22;2042;47.956;9.222;2023-04-24T05:14:20;7.90;8.50
4054;DHT22;2042;47.956;9.222;2023-04-24T05:16:46;7.90;8.50
4054;DHT22;2042;47.956;9.222;2023-04-24T05:19:12;7.90;8.40
4054;DHT22;2042;47.956;9.222;2023-04-24T05:21:40;8.00;8.20
4054;DHT22;2042;47.956;9.222;2023-04-24T05:24:07;7.90;7.30
4054;DHT22;2042;47.956;9.222;2023-04-24T05:26:32;7.90;6.10
4054;DHT22;2042;47.956;9.222;2023-04-24T05:28:58;7.90;6.10
4054;DHT22;2042;47.956;9.222;2023-04-24T05:31:24;7.90;6.40
4054;DHT22;2042;47.956;9.222;2023-04-24T05:33:50;7.90;6.60
4054;DHT22;2042;47.956;9.222;2023-04-24T05:36:16;7.90;6.90
4054;DHT22;2042;47.956;9.222;2023-04-24T05:38:42;7.80;7.00
4054;DHT22;2042;47.956;9.222;2023-04-24T05:41:07;7.80;7.80
4054;DHT22;2042;47.956;9.222;2023-04-24T05:43:33;7.80;8.50
4054;DHT22;2042;47.956;9.222;2023-04-24T05:45:59;7.70;8.40
4054;DHT22;2042;47.956;9.222;2023-04-24T05:48:24;7.80;9.60
4054;DHT22;2042;47.956;9.222;2023-04-24T05:50:50;7.80;10.00
4054;DHT22;2042;47.956;9.222;2023-04-24T05:53:18;7.90;10.20
4054;DHT22;2042;47.956;9.222;2023-04-24T05:55:43;7.90;9.10
4054;DHT22;2042;47.956;9.222;2023-04-24T05:58:09;7.90;9.40
4054;DHT22;2042;47.956;9.222;2023-04-24T06:00:35;8.00;9.80
4054;DHT22;2042;47.956;9.222;2023-04-24T06:03:01;8.20;10.30
4054;DHT22;2042;47.956;9.222;2023-04-24T06:05:29;8.40;10.10
4054;DHT22;2042;47.956;9.222;2023-04-24T06:07:55;8.50;9.60
4054;DHT22;2042;47.956;9.222;2023-04-24T06:10:21;8.80;9.60
4054;DHT22;2042;47.956;9.222;2023-04-24T06:12:46;9.00;7.40
4054;DHT22;2042;47.956;9.222;2023-04-24T06:15:12;9.20;5.70
4054;DHT22;2042;47.956;9.222;2023-04-24T06:17:38;9.60;4.10
4054;DHT22;2042;47.956;9.222;2023-04-24T06:20:04;9.80;1.90
4054;DHT22;2042;47.956;9.222;2023-04-24T06:22:31;10.00;1.00
4054;DHT22;2042;47.956;9.222;2023-04-24T06:24:57;10.10;1.00
4054;DHT22;2042;47.956;9.222;2023-04-24T06:27:22;10.00;1.00
4054;DHT22;2042;47.956;9.222;2023-04-24T06:29:48;9.90;1.00
4054;DHT22;2042;47.956;9.222;2023-04-24T06:32:23;10.10;1.00
4054;DHT22;2042;47.956;9.222;2023-04-24T06:34:49;11.10;1.00
4054;DHT22;2042;47.956;9.222;2023-04-24T06:37:16;12.40;1.00
4054;DHT22;2042;47.956;9.222;2023-04-24T06:39:41;13.20;1.00
4054;DHT22;2042;47.956;9.222;2023-04-24T06:42:07;14.00;1.00
4054;DHT22;2042;47.956;9.222;2023-04-24T06:44:35;14.70;1.00
4054;DHT22;2042;47.956;9.222;2023-04-24T06:47:08;14.80;1.00
4054;DHT22;2042;47.956;9.222;2023-04-24T06:49:35;15.00;1.00
4054;DHT22;2042;47.956;9.222;2023-04-24T06:52:01;14.90;1.00
4054;DHT22;2042;47.956;9.222;2023-04-24T06:54:26;15.10;1.00
4054;DHT22;2042;47.956;9.222;2023-04-24T06:56:52;14.60;1.00
4054;DHT22;2042;47.956;9.222;2023-04-24T06:59:18;14.00;1.00
4054;DHT22;2042;47.956;9.222;2023-04-24T07:01:43;13.80;1.00
4054;DHT22;2042;47.956;9.222;2023-04-24T07:04:09;14.40;1.00
4054;DHT22;2042;47.956;9.222;2023-04-24T07:06:35;14.90;1.00
4054;DHT22;2042;47.956;9.222;2023-04-24T07:09:01;15.30;1.00
4054;DHT22;2042;47.956;9.222;2023-04-24T07:11:27;15.20;1.00
4054;DHT22;2042;47.956;9.222;2023-04-24T07:13:55;14.60;1.00
4054;DHT22;2042;47.956;9.222;2023-04-24T07:16:21;14.20;1.00
4054;DHT22;2042;47.956;9.222;2023-04-24T07:18:46;13.90;1.00
4054;DHT22;2042;47.956;9.222;2023-04-24T07:21:12;13.50;1.00
4054;DHT22;2042;47.956;9.222;2023-04-24T07:23:38;13.10;1.00
4054;DHT22;2042;47.956;9.222;2023-04-24T07:26:04;12.60;1.00
4054;DHT22;2042;47.956;9.222;2023-04-24T07:28:29;12.30;1.00
4054;DHT22;2042;47.956;9.222;2023-04-24T07:30:58;12.20;1.00
4054;DHT22;2042;47.956;9.222;2023-04-24T07:33:27;12.60;1.00
4054;DHT22;2042;47.956;9.222;2023-04-24T07:35:53;14.10;1.00
4054;DHT22;2042;47.956;9.222;2023-04-24T07:38:19;14.40;1.00
4054;DHT22;2042;47.956;9.222;2023-04-24T07:40:48;13.70;1.00
4054;DHT22;2042;47.956;9.222;2023-04-24T07:43:14;13.30;1.00
4054;DHT22;2042;47.956;9.222;2023-04-24T07:45:40;13.50;1.00
4054;DHT22;2042;47.956;9.222;2023-04-24T07:48:06;14.30;1.00
4054;DHT22;2042;47.956;9.222;2023-04-24T07:50:31;14.80;1.00
4054;DHT22;2042;47.956;9.222;2023-04-24T07:52:57;15.80;1.00
4054;DHT22;2042;47.956;9.222;2023-04-24T07:55:23;17.00;1.00
4054;DHT22;2042;47.956;9.222;2023-04-24T07:57:49;17.00;1.00
4054;DHT22;2042;47.956;9.222;2023-04-24T08:00:15;16.10;1.00
4054;DHT22;2042;47.956;9.222;2023-04-24T08:02:40;15.20;1.00
4054;DHT22;2042;47.956;9.222;2023-04-24T08:05:07;14.80;1.00
4054;DHT22;2042;47.956;9.222;2023-04-24T08:07:33;14.40;1.00
4054;DHT22;2042;47.956;9.222;2023-04-24T08:09:58;14.10;1.00
4054;DHT22;2042;47.956;9.222;2023-04-24T08:12:25;13.70;1.00
4054;DHT22;2042;47.956;9.222;2023-04-24T08:14:50;13.30;1.00
4054;DHT22;2042;47.956;9.222;2023-04-24T08:17:16;13.20;1.00
4054;DHT22;2042;47.956;9.222;2023-04-24T08:19:42;13.30;1.00
4054;DHT22;2042;47.956;9.222;2023-04-24T08:22:13;13.40;1.00
4054;DHT22;2042;47.956;9.222;2023-04-24T08:24:38;13.20;1.00
4054;DHT22;2042;47.956;9.222;2023-04-24T08:27:04;12.60;1.00
4054;DHT22;2042;47.956;9.222;2023-04-24T08:29:30;12.30;1.00
4054;DHT22;2042;47.956;9.222;2023-04-24T08:31:55;12.40;1.00
4054;DHT22;2042;47.956;9.222;2023-04-24T08:34:22;13.00;1.00
4054;DHT22;2042;47.956;9.222;2023-04-24T08:36:47;13.80;1.00
4054;DHT22;2042;47.956;9.222;2023-04-24T08:39:14;14.20;1.00
4054;DHT22;2042;47.956;9.222;2023-04-24T08:41:42;14.50;1.00
4054;DHT22;2042;47.956;9.222;2023-04-24T08:44:12;15.20;1.00
4054;DHT22;2042;47.956;9.222;2023-04-24T08:46:39;15.80;1.00
4054;DHT22;2042;47.956;9.222;2023-04-24T08:49:06;15.80;1.00
4054;DHT22;2042;47.956;9.222;2023-04-24T08:51:31;16.00;1.00
4054;DHT22;2042;47.956;9.222;2023-04-24T08:53:58;17.00;1.00
4054;DHT22;2042;47.956;9.222;2023-04-24T08:56:24;17.50;1.00
4054;DHT22;2042;47.956;9.222;2023-04-24T08:58:54;17.10;1.00
4054;DHT22;2042;47.956;9.222;2023-04-24T09:01:20;16.60;1.00
4054;DHT22;2042;47.956;9.222;2023-04-24T09:03:49;16.40;1.00
4054;DHT22;2042;47.956;9.222;2023-04-24T09:06:17;16.00;1.00
4054;DHT22;2042;47.956;9.222;2023-04-24T09:08:45;15.20;1.00
4054;DHT22;2042;47.956;9.222;2023-04-24T09:11:12;14.50;1.00
4054;DHT22;2042;47.956;9.222;2023-04-24T09:13:38;14.00;1.00
4054;DHT22;2042;47.956;9.222;2023-04-24T09:16:04;13.70;1.00
4054;DHT22;2042;47.956;9.222;2023-04-24T09:18:30;13.40;1.00
4054;DHT22;2042;47.956;9.222;2023-04-24T09:21:01;13.10;1.00
4054;DHT22;2042;47.956;9.222;2023-04-24T09:23:28;13.30;1.00
4054;DHT22;2042;47.956;9.222;2023-04-24T09:25:55;14.30;1.00
4054;DHT22;2042;47.956;9.222;2023-04-24T09:28:26;15.40;1.00
4054;DHT22;2042;47.956;9.222;2023-04-24T09:31:02;16.50;1.00
4054;DHT22;2042;47.956;9.222;2023-04-24T09:33:29;16.90;1.00
4054;DHT22;2042;47.956;9.222;2023-04-24T09:35:55;16.20;1.00
4054;DHT22;2042;47.956;9.222;2023-04-24T09:38:34;15.40;1.00
4054;DHT22;2042;47.956;9.222;2023-04-24T09:41:02;14.90;1.00
4054;DHT22;2042;47.956;9.222;2023-04-24T09:43:29;14.50;1.00
4054;DHT22;2042;47.956;9.222;2023-04-24T09:45:56;14.10;1.00
4054;DHT22;2042;47.956;9.222;2023-04-24T09:48:33;14.60;1.00
4054;DHT22;2042;47.956;9.222;2023-04-24T09:51:00;15.10;1.00
4054;DHT22;2042;47.956;9.222;2023-04-24T09:53:27;15.70;1.00
4054;DHT22;2042;47.956;9.222;2023-04-24T09:55:53;15.90;1.00
4054;DHT22;2042;47.956;9.222;2023-04-24T09:58:25;15.80;1.00
4054;DHT22;2042;47.956;9.222;2023-04-24T10:00:53;15.50;1.00
4054;DHT22;2042;47.956;9.222;2023-04-24T10:03:20;15.40;1.00
4054;DHT22;2042;47.956;9.222;2023-04-24T10:05:46;14.80;1.00
4054;DHT22;2042;47.956;9.222;2023-04-24T10:08:12;14.30;1.00
4054;DHT22;2042;47.956;9.222;2023-04-24T10:10:41;14.40;1.00
4054;DHT22;2042;47.956;9.222;2023-04-24T10:13:09;15.70;1.00
4054;DHT22;2042;47.956;9.222;2023-04-24T10:15:36;16.30;1.00
4054;DHT22;2042;47.956;9.222;2023-04-24T10:18:02;16.10;1.00
4054;DHT22;2042;47.956;9.222;2023-04-24T10:20:30;15.70;1.00
4054;DHT22;2042;47.956;9.222;2023-04-24T10:22:57;15.70;1.00
4054;DHT22;2042;47.956;9.222;2023-04-24T10:25:25;15.90;1.00
4054;DHT22;2042;47.956;9.222;2023-04-24T10:27:52;15.70;1.00
4054;DHT22;2042;47.956;9.222;2023-04-24T10:30:19;15.50;1.00
4054;DHT22;2042;47.956;9.222;2023-04-24T10:32:46;16.50;1.00
4054;DHT22;2042;47.956;9.222;2023-04-24T10:35:13;18.10;1.00
4054;DHT22;2042;47.956;9.222;2023-04-24T10:37:43;18.90;1.00
4054;DHT22;2042;47.956;9.222;2023-04-24T10:40:10;17.70;1.00
4054;DHT22;2042;47.956;9.222;2023-04-24T10:42:40;16.70;1.00
4054;DHT22;2042;47.956;9.222;2023-04-24T10:45:20;16.50;1.00
4054;DHT22;2042;47.956;9.222;2023-04-24T10:48:00;18.00;1.00
4054;DHT22;2042;47.956;9.222;2023-04-24T10:50:45;19.70;1.00
4054;DHT22;2042;47.956;9.222;2023-04-24T10:53:19;20.80;1.00
4054;DHT22;2042;47.956;9.222;2023-04-24T10:55:51;21.00;1.00
4054;DHT22;2042;47.956;9.222;2023-04-24T10:58:22;19.80;1.00
4054;DHT22;2042;47.956;9.222;2023-04-24T11:00:58;18.50;1.00
4054;DHT22;2042;47.956;9.222;2023-04-24T11:03:28;17.40;1.00
4054;DHT22;2042;47.956;9.222;2023-04-24T11:06:02;17.30;1.00
4054;DHT22;2042;47.956;9.222;2023-04-24T11:08:37;18.60;1.00
4054;DHT22;2042;47.956;9.222;2023-04-24T11:11:12;19.60;1.00
4054;DHT22;2042;47.956;9.222;2023-04-24T11:16:42;21.40;1.00
4054;DHT22;2042;47.956;9.222;2023-04-24T11:24:38;20.40;1.00
4054;DHT22;2042;47.956;9.222;2023-04-24T11:32:46;20.60;1.00
4054;DHT22;2042;47.956;9.222;2023-04-24T11:35:18;20.90;1.00
4054;DHT22;2042;47.956;9.222;2023-04-24T11:37:45;20.60;1.00
4054;DHT22;2042;47.956;9.222;2023-04-24T11:40:13;20.40;1.00
4054;DHT22;2042;47.956;9.222;2023-04-24T11:42:43;20.50;1.00
4054;DHT22;2042;47.956;9.222;2023-04-24T11:45:30;20.00;1.00
4054;DHT22;2042;47.956;9.222;2023-04-24T11:47:56;20.00;1.00
4054;DHT22;2042;47.956;9.222;2023-04-24T11:50:24;20.10;1.00
4054;DHT22;2042;47.956;9.222;2023-04-24T11:52:54;20.20;1.00
4054;DHT22;2042;47.956;9.222;2023-04-24T11:57:48;19.60;1.00
4054;DHT22;2042;47.956;9.222;2023-04-24T12:00:18;19.90;1.00
4054;DHT22;2042;47.956;9.222;2023-04-24T12:02:44;20.70;1.00
4054;DHT22;2042;47.956;9.222;2023-04-24T12:05:40;20.90;1.00
4054;DHT22;2042;47.956;9.222;2023-04-24T12:08:06;20.60;1.00
4054;DHT22;2042;47.956;9.222;2023-04-24T12:10:32;20.20;1.00
4054;DHT22;2042;47.956;9.222;2023-04-24T12:12:58;19.90;1.00
4054;DHT22;2042;47.956;9.222;2023-04-24T12:15:25;20.30;1.00
4054;DHT22;2042;47.956;9.222;2023-04-24T12:17:52;21.70;1.00
4054;DHT22;2042;47.956;9.222;2023-04-24T12:20:24;22.40;1.00
4054;DHT22;2042;47.956;9.222;2023-04-24T12:22:52;21.90;1.00
4054;DHT22;2042;47.956;9.222;2023-04-24T12:25:32;20.30;1.00
4054;DHT22;2042;47.956;9.222;2023-04-24T12:30:31;18.10;1.00
4054;DHT22;2042;47.956;9.222;2023-04-24T12:32:58;17.40;1.00
4054;DHT22;2042;47.956;9.222;2023-04-24T12:35:25;17.90;1.00
4054;DHT22;2042;47.956;9.222;2023-04-24T12:37:51;17.70;1.00
4054;DHT22;2042;47.956;9.222;2023-04-24T12:40:18;17.90;1.00
4054;DHT22;2042;47.956;9.222;2023-04-24T12:42:50;19.20;1.00
4054;DHT22;2042;47.956;9.222;2023-04-24T12:45:19;19.70;1.00
4054;DHT22;2042;47.956;9.222;2023-04-24T12:47:46;20.00;1.00
4054;DHT22;2042;47.956;9.222;2023-04-24T12:50:15;19.90;1.00
4054;DHT22;2042;47.956;9.222;2023-04-24T12:52:42;20.20;1.00
4054;DHT22;2042;47.956;9.222;2023-04-24T12:55:08;19.60;1.00
4054;DHT22;2042;47.956;9.222;2023-04-24T12:57:36;18.80;1.00
4054;DHT22;2042;47.956;9.222;2023-04-24T13:00:03;19.30;1.00
4054;DHT22;2042;47.956;9.222;2023-04-24T13:02:30;20.00;1.00
4054;DHT22;2042;47.956;9.222;2023-04-24T13:04:57;19.80;1.00
4054;DHT22;2042;47.956;9.222;2023-04-24T13:09:50;17.40;1.00
4054;DHT22;2042;47.956;9.222;2023-04-24T13:12:15;16.70;1.00
4054;DHT22;2042;47.956;9.222;2023-04-24T13:14:41;16.20;1.00
4054;DHT22;2042;47.956;9.222;2023-04-24T13:17:07;15.70;1.00
4054;DHT22;2042;47.956;9.222;2023-04-24T13:19:40;14.90;1.00
4054;DHT22;2042;47.956;9.222;2023-04-24T13:22:06;14.30;1.00
4054;DHT22;2042;47.956;9.222;2023-04-24T13:24:33;14.10;1.00
4054;DHT22;2042;47.956;9.222;2023-04-24T13:26:59;14.00;1.00
4054;DHT22;2042;47.956;9.222;2023-04-24T13:29:26;14.00;1.00
4054;DHT22;2042;47.956;9.222;2023-04-24T13:31:53;14.40;1.00
4054;DHT22;2042;47.956;9.222;2023-04-24T13:34:23;14.80;1.00
4054;DHT22;2042;47.956;9.222;2023-04-24T13:36:50;14.70;1.00
4054;DHT22;2042;47.956;9.222;2023-04-24T13:39:17;14.40;1.00
4054;DHT22;2042;47.956;9.222;2023-04-24T13:41:42;13.90;1.00
4054;DHT22;2042;47.956;9.222;2023-04-24T13:44:08;13.50;1.00
4054;DHT22;2042;47.956;9.222;2023-04-24T13:46:34;13.40;1.00
4054;DHT22;2042;47.956;9.222;2023-04-24T13:49:02;13.40;1.00
4054;DHT22;2042;47.956;9.222;2023-04-24T13:51:28;13.60;1.00
4054;DHT22;2042;47.956;9.222;2023-04-24T13:53:54;14.00;1.00
4054;DHT22;2042;47.956;9.222;2023-04-24T13:56:20;14.50;1.00
4054;DHT22;2042;47.956;9.222;2023-04-24T13:58:46;14.80;1.00
4054;DHT22;2042;47.956;9.222;2023-04-24T14:01:12;14.80;1.00
4054;DHT22;2042;47.956;9.222;2023-04-24T14:03:38;14.60;1.00
4054;DHT22;2042;47.956;9.222;2023-04-24T14:06:04;14.50;1.00
4054;DHT22;2042;47.956;9.222;2023-04-24T14:08:30;14.30;1.00
4054;DHT22;2042;47.956;9.222;2023-04-24T14:10:55;14.00;1.00
4054;DHT22;2042;47.956;9.222;2023-04-24T14:13:21;13.70;1.00
4054;DHT22;2042;47.956;9.222;2023-04-24T14:15:47;13.50;1.00
4054;DHT22;2042;47.956;9.222;2023-04-24T14:18:12;13.30;1.00
4054;DHT22;2042;47.956;9.222;2023-04-24T14:20:39;13.30;1.00
4054;DHT22;2042;47.956;9.222;2023-04-24T14:23:05;13.40;1.00
4054;DHT22;2042;47.956;9.222;2023-04-24T14:25:31;13.50;1.00
4054;DHT22;2042;47.956;9.222;2023-04-24T14:27:56;13.80;1.00
4054;DHT22;2042;47.956;9.222;2023-04-24T14:30:22;14.10;1.00
4054;DHT22;2042;47.956;9.222;2023-04-24T14:32:48;14.00;1.00
4054;DHT22;2042;47.956;9.222;2023-04-24T14:35:14;13.90;1.00
4054;DHT22;2042;47.956;9.222;2023-04-24T14:37:40;13.70;1.00
4054;DHT22;2042;47.956;9.222;2023-04-24T14:40:07;13.50;1.00
4054;DHT22;2042;47.956;9.222;2023-04-24T14:42:33;13.40;1.00
4054;DHT22;2042;47.956;9.222;2023-04-24T14:44:59;13.30;1.00
4054;DHT22;2042;47.956;9.222;2023-04-24T14:47:25;13.20;1.00
4054;DHT22;2042;47.956;9.222;2023-04-24T14:49:50;13.00;1.00
4054;DHT22;2042;47.956;9.222;2023-04-24T14:52:16;12.80;1.00
4054;DHT22;2042;47.956;9.222;2023-04-24T14:54:42;12.60;1.00
4054;DHT22;2042;47.956;9.222;2023-04-24T14:57:09;12.30;1.00
4054;DHT22;2042;47.956;9.222;2023-04-24T14:59:34;12.20;1.00
4054;DHT22;2042;47.956;9.222;2023-04-24T15:02:00;12.20;1.00
4054;DHT22;2042;47.956;9.222;2023-04-24T15:04:27;12.30;1.00
4054;DHT22;2042;47.956;9.222;2023-04-24T15:06:54;12.70;1.00
4054;DHT22;2042;47.956;9.222;2023-04-24T15:09:21;13.10;1.00
4054;DHT22;2042;47.956;9.222;2023-04-24T15:11:48;13.20;1.00
4054;DHT22;2042;47.956;9.222;2023-04-24T15:14:15;13.10;1.00
4054;DHT22;2042;47.956;9.222;2023-04-24T15:16:41;12.90;1.00
4054;DHT22;2042;47.956;9.222;2023-04-24T15:19:06;12.90;1.00
4054;DHT22;2042;47.956;9.222;2023-04-24T15:21:32;13.00;1.00
4054;DHT22;2042;47.956;9.222;2023-04-24T15:23:58;13.20;1.00
4054;DHT22;2042;47.956;9.222;2023-04-24T15:26:24;13.40;1.00
4054;DHT22;2042;47.956;9.222;2023-04-24T15:28:51;13.60;1.00
4054;DHT22;2042;47.956;9.222;2023-04-24T15:31:17;13.70;1.00
4054;DHT22;2042;47.956;9.222;2023-04-24T15:33:43;13.70;1.00
4054;DHT22;2042;47.956;9.222;2023-04-24T15:36:09;13.50;1.00
4054;DHT22;2042;47.956;9.222;2023-04-24T15:38:35;13.40;1.00
4054;DHT22;2042;47.956;9.222;2023-04-24T15:41:01;13.30;1.00
4054;DHT22;2042;47.956;9.222;2023-04-24T15:43:26;13.20;1.00
4054;DHT22;2042;47.956;9.222;2023-04-24T15:45:55;13.20;1.00
4054;DHT22;2042;47.956;9.222;2023-04-24T15:48:21;13.10;1.00
4054;DHT22;2042;47.956;9.222;2023-04-24T15:50:47;13.10;1.00
4054;DHT22;2042;47.956;9.222;2023-04-24T15:53:12;13.00;1.00
4054;DHT22;2042;47.956;9.222;2023-04-24T15:55:38;12.90;1.00
4054;DHT22;2042;47.956;9.222;2023-04-24T15:58:04;12.70;1.00
4054;DHT22;2042;47.956;9.222;2023-04-24T16:00:29;12.50;1.00
4054;DHT22;2042;47.956;9.222;2023-04-24T16:03:01;12.40;1.00
4054;DHT22;2042;47.956;9.222;2023-04-24T16:05:27;12.30;1.00
4054;DHT22;2042;47.956;9.222;2023-04-24T16:07:53;12.30;1.00
4054;DHT22;2042;47.956;9.222;2023-04-24T16:10:19;12.40;1.00
4054;DHT22;2042;47.956;9.222;2023-04-24T16:12:44;12.40;1.00
4054;DHT22;2042;47.956;9.222;2023-04-24T16:15:10;12.50;1.00
4054;DHT22;2042;47.956;9.222;2023-04-24T16:17:36;12.50;1.00
4054;DHT22;2042;47.956;9.222;2023-04-24T16:20:03;12.70;1.00
4054;DHT22;2042;47.956;9.222;2023-04-24T16:22:29;12.90;1.00
4054;DHT22;2042;47.956;9.222;2023-04-24T16:24:55;13.00;1.00
4054;DHT22;2042;47.956;9.222;2023-04-24T16:27:23;13.10;1.00
4054;DHT22;2042;47.956;9.222;2023-04-24T16:29:49;13.10;1.00
4054;DHT22;2042;47.956;9.222;2023-04-24T16:32:15;13.20;1.00
4054;DHT22;2042;47.956;9.222;2023-04-24T16:34:41;13.30;1.00
4054;DHT22;2042;47.956;9.222;2023-04-24T16:37:06;13.30;1.00
4054;DHT22;2042;47.956;9.222;2023-04-24T16:39:32;13.30;1.00